Time;durP1;ratioP1;P1;durP2;ratioP2;P2;SDS_P1;SDS_P2;PMS_P1;PMS_P2;Temp;Humidity;BMP_temperature;BMP_pressure;BME280_temperature;BME280_humidity;BME280_pressure;Samples;Min_cycle;Max_cycle;Signal;HPM_P1;HPM_P2
2022/06/07 00:02:29;;;;;;;13.30;9.82;;;;;;;19.10;59.13;101231.94;5028653;28;20056;-66
2022/06/07 00:04:57;;;;;;;12.48;9.32;;;;;;;19.10;58.76;101228.34;5016898;28;20042;-65
2022/06/07 00:07:24;;;;;;;11.60;9.88;;;;;;;19.09;58.75;101213.03;5057207;28;20455;-65
2022/06/07 00:09:52;;;;;;;13.68;10.27;;;;;;;19.07;58.79;101223.22;5016781;28;20522;-65
2022/06/07 00:12:23;;;;;;;12.45;11.15;;;;;;;19.05;58.97;101220.66;5021541;28;20045;-65
2022/06/07 00:14:51;;;;;;;13.85;11.00;;;;;;;19.05;58.60;101220.66;5031284;28;20132;-65
2022/06/07 00:17:18;;;;;;;14.63;11.13;;;;;;;19.02;58.99;101216.38;5031110;28;20037;-66
2022/06/07 00:19:44;;;;;;;14.25;11.75;;;;;;;19.01;58.87;101213.78;5029836;28;20121;-65
2022/06/07 00:22:12;;;;;;;15.55;11.15;;;;;;;18.99;59.15;101213.09;5031114;28;20049;-65
2022/06/07 00:24:39;;;;;;;14.75;11.57;;;;;;;18.97;58.69;101210.53;5022349;28;20042;-66
2022/06/07 00:27:06;;;;;;;15.65;12.02;;;;;;;18.98;59.09;101204.06;5025778;28;20044;-65
2022/06/07 00:29:34;;;;;;;15.55;12.80;;;;;;;18.99;58.75;101202.22;5030940;28;20061;-66
2022/06/07 00:32:04;;;;;;;17.83;12.55;;;;;;;18.98;58.64;101201.34;5033672;28;20588;-66
2022/06/07 00:34:30;;;;;;;17.45;12.68;;;;;;;18.98;58.98;101197.78;5039416;28;20132;-65
2022/06/07 00:36:57;;;;;;;17.52;13.13;;;;;;;18.94;59.15;101201.81;5031178;28;20050;-65
2022/06/07 00:39:24;;;;;;;15.63;12.65;;;;;;;18.90;58.82;101197.69;5031055;28;20041;-65
2022/06/07 00:41:50;;;;;;;16.08;13.00;;;;;;;18.85;58.88;101198.16;5029614;28;20049;-65
2022/06/07 00:44:23;;;;;;;18.85;14.68;;;;;;;18.84;58.83;101195.59;5029908;28;20496;-65
2022/06/07 00:47:08;;;;;;;19.55;15.52;;;;;;;18.84;59.28;101184.72;5031312;28;20521;-65
2022/06/07 00:49:48;;;;;;;20.00;15.13;;;;;;;18.83;59.09;101186.56;5031207;28;20046;-65
2022/06/07 00:52:21;;;;;;;22.45;17.45;;;;;;;18.83;59.21;101185.72;5030369;28;20069;-66
2022/06/07 00:54:47;;;;;;;20.17;16.05;;;;;;;18.82;59.12;101179.41;5050034;28;20513;-66
2022/06/07 00:57:30;;;;;;;23.65;17.05;;;;;;;18.82;58.79;101178.56;5030585;28;20048;-66
2022/06/07 00:59:58;;;;;;;22.52;16.95;;;;;;;18.81;59.24;101179.56;5033107;28;20049;-66
2022/06/07 01:02:28;;;;;;;22.00;16.35;;;;;;;18.78;59.01;101177.16;5032873;28;20041;-66
2022/06/07 01:04:55;;;;;;;20.73;16.20;;;;;;;18.76;59.26;101179.19;5034354;28;20129;-66
2022/06/07 01:12:59;;;;;;;21.10;16.33;;;;;;;18.63;59.02;101174.97;5034455;28;20392;-66
2022/06/07 01:15:28;;;;;;;22.30;16.88;;;;;;;18.61;59.45;101174.25;5041097;28;20052;-65
2022/06/07 01:17:57;;;;;;;20.67;16.80;;;;;;;18.58;59.09;101176.38;5034614;28;20037;-66
2022/06/07 01:20:25;;;;;;;23.00;17.02;;;;;;;18.58;59.20;101173.66;5033852;28;20503;-66
2022/06/07 01:22:56;;;;;;;25.33;17.40;;;;;;;18.56;59.30;101172.94;5033735;28;20037;-65
2022/06/07 01:25:23;;;;;;;22.15;16.80;;;;;;;18.56;59.30;101173.81;5034544;28;20068;-66
2022/06/07 01:27:54;;;;;;;23.10;17.05;;;;;;;18.57;59.74;101169.22;5032501;28;20052;-66
2022/06/07 01:30:21;;;;;;;24.00;16.50;;;;;;;18.58;59.24;101166.38;5032405;28;20046;-66
2022/06/07 01:32:54;;;;;;;24.05;17.05;;;;;;;18.59;59.43;101169.94;5033688;28;20042;-67
2022/06/07 01:35:20;;;;;;;22.88;17.33;;;;;;;18.61;59.49;101168.81;5033583;28;20038;-66
2022/06/07 01:37:47;;;;;;;23.63;16.55;;;;;;;18.61;59.44;101171.53;5033612;28;20076;-66
2022/06/07 01:43:07;;;;;;;19.67;16.10;;;;;;;18.60;59.76;101160.78;5034758;28;20120;-66
2022/06/07 01:45:33;;;;;;;19.33;15.10;;;;;;;18.61;59.42;101149.78;5051391;28;20525;-66
2022/06/07 01:48:00;;;;;;;18.67;15.55;;;;;;;18.62;59.20;101151.50;5034699;28;20035;-66
2022/06/07 01:50:27;;;;;;;20.27;16.55;;;;;;;18.59;59.68;101149.03;5066251;28;20049;-66
2022/06/07 01:52:58;;;;;;;19.90;15.48;;;;;;;18.60;59.81;101147.19;5033781;28;20042;-66
2022/06/07 01:55:28;;;;;;;20.60;15.02;;;;;;;18.61;59.82;101140.72;5040200;28;20044;-66
2022/06/07 01:58:02;;;;;;;20.80;15.75;;;;;;;18.61;59.53;101147.06;5034588;28;20046;-66
2022/06/07 02:00:29;;;;;;;19.73;15.00;;;;;;;18.60;59.64;101139.88;5022776;28;20108;-66
2022/06/07 02:03:00;;;;;;;16.83;14.65;;;;;;;18.58;59.75;101138.28;5028376;28;20137;-66
2022/06/07 02:05:28;;;;;;;18.05;15.00;;;;;;;18.56;59.25;101133.00;5034231;28;20042;-66
2022/06/07 02:07:58;;;;;;;17.63;13.63;;;;;;;18.55;59.57;101128.56;5032478;28;20103;-66
2022/06/07 02:10:29;;;;;;;19.48;13.65;;;;;;;18.55;59.61;101135.88;5032439;28;20053;-66
2022/06/07 02:13:05;;;;;;;17.92;13.32;;;;;;;18.54;59.61;101132.31;5032252;28;20160;-67
2022/06/07 02:15:33;;;;;;;17.20;12.93;;;;;;;18.54;59.78;101123.28;5032475;28;20069;-66
2022/06/07 02:17:59;;;;;;;16.45;12.80;;;;;;;18.51;59.32;101121.72;5040456;28;20523;-66
2022/06/07 02:20:40;;;;;;;16.35;12.15;;;;;;;18.53;59.39;101121.56;5020133;28;20167;-66
2022/06/07 02:23:11;;;;;;;18.02;12.48;;;;;;;18.51;59.33;101121.72;5032113;28;20120;-65
2022/06/07 02:25:43;;;;;;;18.92;13.48;;;;;;;18.51;59.70;101121.72;5037783;28;20045;-66
2022/06/07 02:28:12;;;;;;;14.00;11.73;;;;;;;18.51;59.44;101120.88;5031969;28;20044;-66
2022/06/07 02:30:40;;;;;;;13.65;11.60;;;;;;;18.49;59.71;101118.31;5033375;28;20046;-66
2022/06/07 02:33:12;;;;;;;17.02;12.07;;;;;;;18.46;59.70;101118.63;5033154;28;20464;-66
2022/06/07 02:35:42;;;;;;;16.38;11.40;;;;;;;18.44;59.68;101123.34;5032213;28;20041;-66
2022/06/07 02:38:09;;;;;;;17.35;10.68;;;;;;;18.42;59.60;101118.06;5034789;28;20042;-66
2022/06/07 02:40:40;;;;;;;16.75;10.43;;;;;;;18.37;59.23;101111.38;5032975;28;20041;-66
2022/06/07 02:43:10;;;;;;;16.08;10.70;;;;;;;18.31;59.27;101110.13;5032804;28;20543;-66
2022/06/07 02:45:37;;;;;;;13.88;10.65;;;;;;;18.29;59.16;101106.69;5029433;28;20033;-66
2022/06/07 02:48:04;;;;;;;13.93;10.07;;;;;;;18.28;59.41;101107.72;5019942;28;20497;-66
2022/06/07 02:50:32;;;;;;;13.10;9.77;;;;;;;18.29;59.37;101106.69;5031269;28;20053;-66
2022/06/07 02:53:02;;;;;;;13.00;10.38;;;;;;;18.27;59.25;101102.41;5008789;28;20510;-66
2022/06/07 02:55:32;;;;;;;13.05;10.00;;;;;;;18.25;59.14;101105.28;5042162;28;20144;-67
2022/06/07 02:58:05;;;;;;;13.57;9.57;;;;;;;18.24;59.36;101103.59;5018327;28;20506;-66
2022/06/07 03:00:32;;;;;;;14.10;10.52;;;;;;;18.25;59.23;101105.28;5031062;28;20103;-66
2022/06/07 03:03:00;;;;;;;15.27;10.27;;;;;;;18.26;59.26;101112.44;5031009;28;20077;-66
2022/06/07 03:05:27;;;;;;;11.57;9.25;;;;;;;18.25;59.52;101107.16;5034405;28;20064;-66
2022/06/07 03:07:58;;;;;;;12.85;8.63;;;;;;;18.23;59.47;101110.03;5031092;28;20037;-66
2022/06/07 03:10:25;;;;;;;13.52;8.98;;;;;;;18.22;59.32;101105.59;5030840;28;20053;-66
2022/06/07 03:12:55;;;;;;;11.30;8.75;;;;;;;18.21;59.48;101114.75;5030218;28;20095;-66
2022/06/07 03:15:25;;;;;;;12.57;8.55;;;;;;;18.18;59.38;101112.34;5034605;28;20088;-66
2022/06/07 03:17:53;;;;;;;11.18;8.43;;;;;;;18.18;59.43;101109.63;5032163;28;20040;-66
2022/06/07 03:20:26;;;;;;;14.65;8.25;;;;;;;18.18;58.98;101109.63;5030821;28;20045;-66
2022/06/07 03:22:55;;;;;;;10.90;8.27;;;;;;;18.19;59.03;101113.19;5032031;28;20388;-65
2022/06/07 03:25:24;;;;;;;13.02;8.00;;;;;;;18.16;59.40;101111.66;5036886;28;20038;-68
2022/06/07 03:27:57;;;;;;;9.90;7.20;;;;;;;18.13;59.30;101121.97;5016916;28;20046;-65
2022/06/07 03:30:24;;;;;;;11.52;8.07;;;;;;;18.10;58.91;101106.81;5030673;28;20041;-66
2022/06/07 03:32:57;;;;;;;9.38;6.93;;;;;;;18.09;58.90;101122.25;5031068;28;20423;-65
2022/06/07 03:35:27;;;;;;;9.27;7.38;;;;;;;18.12;59.07;101123.81;5040817;28;20037;-65
2022/06/07 03:37:56;;;;;;;8.80;7.07;;;;;;;18.11;59.08;101124.84;5038339;28;20045;-65
2022/06/07 03:43:16;;;;;;;11.32;7.40;;;;;;;18.08;59.29;101126.00;5030628;28;20475;-65
2022/06/07 03:45:43;;;;;;;10.20;7.30;;;;;;;18.05;59.12;101128.16;5043221;28;20041;-65
2022/06/07 03:48:14;;;;;;;13.07;7.57;;;;;;;18.04;58.76;101134.59;5030448;28;20046;-66
2022/06/07 03:50:44;;;;;;;8.65;7.32;;;;;;;18.01;58.76;101132.19;5030390;28;20103;-66
2022/06/07 03:53:16;;;;;;;8.27;6.70;;;;;;;17.99;58.88;101136.91;5030507;28;20041;-65
2022/06/07 03:55:47;;;;;;;11.05;7.10;;;;;;;17.97;58.72;101136.19;5030930;28;20042;-65
2022/06/07 03:58:16;;;;;;;11.27;7.00;;;;;;;17.96;58.85;101143.50;5030718;28;20041;-65
2022/06/07 04:00:44;;;;;;;13.00;7.00;;;;;;;17.97;59.00;101137.06;5032072;28;20151;-66
2022/06/07 04:03:15;;;;;;;12.38;6.43;;;;;;;17.99;58.93;101139.63;5030419;28;20088;-65
2022/06/07 04:05:44;;;;;;;9.73;6.68;;;;;;;17.98;58.83;101137.91;5035940;28;20053;-66
2022/06/07 04:08:14;;;;;;;8.68;6.35;;;;;;;17.96;59.19;101139.94;5032330;28;20049;-66
2022/06/07 04:10:48;;;;;;;12.18;6.50;;;;;;;17.94;58.68;101148.22;5032041;28;20037;-65
2022/06/07 04:13:21;;;;;;;10.00;6.55;;;;;;;17.92;58.76;101149.38;5064278;28;20038;-65
2022/06/07 04:15:50;;;;;;;8.40;6.07;;;;;;;17.89;58.90;101142.38;5030513;28;20076;-65
2022/06/07 04:18:17;;;;;;;9.90;6.80;;;;;;;17.91;58.98;101147.66;5030006;28;20048;-65
2022/06/07 04:20:45;;;;;;;7.28;6.30;;;;;;;17.92;59.18;101144.81;5030736;28;20041;-66
2022/06/07 04:23:19;;;;;;;7.78;6.07;;;;;;;17.93;59.03;101146.50;5030426;28;20096;-65
2022/06/07 04:25:46;;;;;;;9.27;6.22;;;;;;;17.92;59.31;101149.38;5040872;28;20458;-65
2022/06/07 04:28:15;;;;;;;9.52;6.60;;;;;;;17.94;58.79;101147.38;5034407;28;20095;-66
2022/06/07 04:30:46;;;;;;;11.38;7.03;;;;;;;17.96;58.88;101150.78;5035669;28;20513;-65
2022/06/07 04:33:21;;;;;;;8.65;6.47;;;;;;;17.96;59.05;101145.38;5064734;28;20041;-65
2022/06/07 04:35:51;;;;;;;8.77;6.60;;;;;;;17.95;59.21;101149.09;5057926;28;20499;-65
2022/06/07 04:38:21;;;;;;;11.15;6.32;;;;;;;17.92;59.07;101143.94;5031891;28;20037;-65
2022/06/07 04:40:47;;;;;;;10.23;7.10;;;;;;;17.89;59.07;101146.97;5035498;28;20120;-65
2022/06/07 04:43:18;;;;;;;10.32;6.45;;;;;;;17.86;59.05;101145.41;5035320;28;20283;-65
2022/06/07 04:45:45;;;;;;;9.75;7.05;;;;;;;17.85;59.13;101154.56;5034222;28;20037;-66
2022/06/07 04:48:12;;;;;;;10.00;7.05;;;;;;;17.86;59.14;101158.13;5067510;28;20402;-65
2022/06/07 04:51:25;;;;;;;9.25;6.95;;;;;;;17.86;59.25;101150.84;5053041;28;20048;-68
2022/06/07 04:54:49;;;;;;;10.73;6.85;;;;;;;17.88;59.25;101161.56;5036212;28;20457;-67
2022/06/07 04:57:18;;;;;;;8.88;7.32;;;;;;;17.88;59.27;101162.41;5032544;28;20077;-66
2022/06/07 04:59:45;;;;;;;11.60;7.28;;;;;;;17.89;59.21;101158.69;5032799;28;20041;-65
2022/06/07 05:02:13;;;;;;;14.82;7.43;;;;;;;17.89;59.07;101165.97;5020318;28;20467;-65
2022/06/07 05:04:41;;;;;;;12.57;7.70;;;;;;;17.87;58.87;101165.28;5035163;28;20038;-65
2022/06/07 05:07:21;;;;;;;12.02;7.95;;;;;;;17.89;58.98;101163.25;5032826;28;20069;-65
2022/06/07 05:10:13;;;;;;;13.95;8.68;;;;;;;17.89;59.05;101168.69;5032683;28;20485;-65
2022/06/07 05:12:48;;;;;;;15.30;7.45;;;;;;;17.89;59.08;101164.13;5032670;28;20077;-66
2022/06/07 05:15:19;;;;;;;14.00;8.23;;;;;;;17.91;59.02;101164.84;5065296;28;20128;-66
2022/06/07 05:17:52;;;;;;;11.70;8.27;;;;;;;17.93;58.89;101168.25;5032431;28;20048;-65
2022/06/07 05:20:22;;;;;;;12.70;8.55;;;;;;;17.94;59.35;101178.13;5057804;28;20046;-65
2022/06/07 05:22:58;;;;;;;12.73;9.27;;;;;;;17.96;59.49;101175.25;5028296;28;20420;-65
2022/06/07 05:25:25;;;;;;;12.10;8.52;;;;;;;17.97;59.27;101171.53;5045955;28;20053;-66
2022/06/07 05:27:53;;;;;;;13.43;8.93;;;;;;;17.98;59.25;101165.09;5018584;28;20045;-66
2022/06/07 05:30:26;;;;;;;15.10;9.32;;;;;;;18.01;59.35;101164.78;5066111;28;20556;-66
2022/06/07 05:32:57;;;;;;;14.00;9.23;;;;;;;18.05;59.13;101171.63;5033078;28;20403;-66
2022/06/07 05:35:46;;;;;;;13.85;8.60;;;;;;;18.07;59.54;101178.63;5022658;28;20049;-65
2022/06/07 05:38:21;;;;;;;13.90;8.77;;;;;;;18.10;59.63;101167.47;5028140;28;20041;-65
2022/06/07 05:40:56;;;;;;;13.43;9.25;;;;;;;18.14;59.42;101169.88;5030011;28;20041;-65
2022/06/07 05:43:25;;;;;;;13.65;9.00;;;;;;;18.16;59.11;101167.88;5030546;28;20080;-64
2022/06/07 05:45:56;;;;;;;13.43;8.95;;;;;;;18.18;59.23;101168.56;5046602;28;20520;-64
2022/06/07 05:48:40;;;;;;;10.85;9.25;;;;;;;18.22;59.08;101170.84;5033166;28;20518;-64
2022/06/07 05:51:13;;;;;;;13.38;8.82;;;;;;;18.28;59.41;101166.66;5016388;28;20046;-64
2022/06/07 05:53:40;;;;;;;14.10;10.07;;;;;;;18.31;59.29;101169.94;5026009;28;20045;-65
2022/06/07 05:56:10;;;;;;;11.35;9.05;;;;;;;18.36;59.15;101170.34;5018788;28;20125;-64
2022/06/07 05:58:39;;;;;;;17.02;10.25;;;;;;;18.42;59.27;101168.88;5017019;28;20050;-65
2022/06/07 06:01:08;;;;;;;17.05;10.45;;;;;;;18.47;59.25;101168.41;5017968;28;20125;-64
2022/06/07 06:03:40;;;;;;;12.70;10.07;;;;;;;18.53;59.48;101165.94;5032019;28;20411;-64
2022/06/07 06:06:11;;;;;;;15.23;11.10;;;;;;;18.57;58.99;101170.06;5029442;28;20048;-65
2022/06/07 06:11:33;;;;;;;17.30;11.05;;;;;;;18.64;58.88;101175.81;5015955;28;20076;-66
2022/06/07 06:14:18;;;;;;;20.80;12.25;;;;;;;18.65;58.82;101172.09;5040983;28;20046;-66
2022/06/07 06:16:48;;;;;;;16.63;11.82;;;;;;;18.68;59.24;101169.06;5025220;28;20496;-66
2022/06/07 06:19:26;;;;;;;21.63;11.77;;;;;;;18.71;59.24;101174.19;5029716;28;20454;-66
2022/06/07 06:21:54;;;;;;;18.25;13.27;;;;;;;18.73;58.83;101183.06;5055140;28;20056;-65
2022/06/07 06:24:34;;;;;;;20.35;13.27;;;;;;;18.78;59.40;101180.72;5034148;28;20056;-65
2022/06/07 06:27:06;;;;;;;21.67;14.07;;;;;;;18.83;59.29;101174.81;5017208;28;20038;-65
2022/06/07 06:29:37;;;;;;;20.85;14.57;;;;;;;18.91;59.08;101180.34;5029679;28;20045;-66
2022/06/07 06:32:07;;;;;;;21.25;15.05;;;;;;;18.96;59.05;101175.31;5018930;28;20046;-66
2022/06/07 06:34:35;;;;;;;23.15;16.10;;;;;;;19.01;59.40;101182.00;5031064;28;20436;-65
2022/06/07 06:37:06;;;;;;;23.95;14.98;;;;;;;19.09;59.41;101177.63;5045548;28;20133;-65
2022/06/07 06:39:36;;;;;;;22.50;15.30;;;;;;;19.16;59.36;101185.03;5028197;28;20124;-65
2022/06/07 06:42:07;;;;;;;20.52;16.38;;;;;;;19.23;59.19;101179.81;5027199;28;20077;-66
2022/06/07 06:45:03;;;;;;;22.25;16.13;;;;;;;19.31;59.09;101185.31;5021361;28;20061;-66
2022/06/07 06:47:31;;;;;;;25.88;16.70;;;;;;;19.34;59.00;101180.44;5029310;28;20132;-65
2022/06/07 06:49:57;;;;;;;24.15;16.80;;;;;;;19.36;59.27;101183.88;5030614;28;20371;-64
2022/06/07 06:52:49;;;;;;;23.23;16.48;;;;;;;19.39;59.19;101179.13;5032071;28;20041;-65
2022/06/07 06:55:19;;;;;;;21.90;17.02;;;;;;;19.47;59.02;101179.19;5032014;28;20044;-65
2022/06/07 06:57:47;;;;;;;21.73;15.50;;;;;;;19.54;58.81;101193.91;5031148;28;20124;-65
2022/06/07 07:00:14;;;;;;;21.10;17.15;;;;;;;19.63;59.20;101190.22;5030555;28;20491;-66
2022/06/07 07:02:44;;;;;;;24.00;17.17;;;;;;;19.73;58.85;101193.69;5030901;28;20045;-65
2022/06/07 07:05:15;;;;;;;20.45;16.33;;;;;;;19.80;58.51;101202.09;5029957;28;20095;-65
2022/06/07 07:07:48;;;;;;;23.23;17.42;;;;;;;19.83;58.69;101194.44;5032667;28;20034;-65
2022/06/07 07:10:22;;;;;;;23.92;18.35;;;;;;;19.88;58.55;101191.25;5030205;28;20495;-65
2022/06/07 07:12:51;;;;;;;24.38;17.45;;;;;;;19.90;58.41;101190.06;5042991;28;20056;-66
2022/06/07 07:15:23;;;;;;;23.85;18.70;;;;;;;19.97;58.48;101193.00;5029935;28;20052;-65
2022/06/07 07:18:02;;;;;;;23.67;17.27;;;;;;;20.07;58.71;101187.47;5030135;28;20061;-66
2022/06/07 07:20:33;;;;;;;26.30;18.27;;;;;;;20.13;58.31;101184.09;5061113;28;20099;-65
2022/06/07 07:23:01;;;;;;;26.58;19.65;;;;;;;20.21;58.26;101184.13;5031204;28;20065;-66
2022/06/07 07:25:28;;;;;;;26.65;19.83;;;;;;;20.29;58.23;101192.34;5030651;28;20045;-66
2022/06/07 07:27:56;;;;;;;25.48;19.52;;;;;;;20.38;58.25;101196.81;5030028;28;20042;-66
2022/06/07 07:30:26;;;;;;;23.45;18.95;;;;;;;20.47;58.40;101189.56;5033466;28;20044;-66
2022/06/07 07:32:56;;;;;;;25.05;18.40;;;;;;;20.57;58.18;101193.00;5040470;28;20067;-66
2022/06/07 07:35:24;;;;;;;24.50;18.95;;;;;;;20.67;58.31;101195.59;5030909;28;20399;-66
2022/06/07 07:37:58;;;;;;;25.88;20.45;;;;;;;20.79;58.32;101192.38;5016978;28;20040;-66
2022/06/07 07:40:25;;;;;;;25.50;18.77;;;;;;;20.89;58.21;101190.38;5028489;28;20462;-66
2022/06/07 07:42:58;;;;;;;23.80;19.38;;;;;;;20.98;57.77;101193.97;5028408;28;20102;-66
2022/06/07 07:45:35;;;;;;;24.08;19.63;;;;;;;21.07;57.73;101195.69;5030809;28;20041;-66
2022/06/07 07:48:07;;;;;;;23.42;18.77;;;;;;;21.17;57.70;101198.28;5029694;28;20115;-66
2022/06/07 07:50:39;;;;;;;24.50;19.02;;;;;;;21.23;57.38;101194.91;5029370;28;20045;-66
2022/06/07 07:53:08;;;;;;;21.15;17.90;;;;;;;21.28;57.26;101188.91;5029604;28;20033;-67
2022/06/07 07:55:42;;;;;;;23.27;19.13;;;;;;;21.34;57.14;101197.28;5029337;28;20120;-67
2022/06/07 07:58:09;;;;;;;20.40;17.65;;;;;;;21.38;57.15;101189.59;5030986;28;20573;-67
2022/06/07 08:00:37;;;;;;;24.40;19.50;;;;;;;21.43;56.89;101190.78;5016311;28;20045;-67
2022/06/07 08:03:08;;;;;;;22.27;19.30;;;;;;;21.50;57.28;101188.22;5044648;28;20405;-68
2022/06/07 08:05:40;;;;;;;23.20;17.98;;;;;;;21.56;57.00;101190.31;5052423;28;20045;-67
2022/06/07 08:08:09;;;;;;;23.23;19.50;;;;;;;21.65;56.88;101191.16;5043151;28;20037;-67
2022/06/07 08:10:37;;;;;;;22.05;18.95;;;;;;;21.75;56.88;101187.22;5037807;28;20545;-67
2022/06/07 08:13:07;;;;;;;24.98;19.10;;;;;;;21.90;56.74;101190.09;5034918;28;20112;-67
2022/06/07 08:15:34;;;;;;;24.38;19.80;;;;;;;22.03;56.40;101190.41;5035010;28;20080;-67
2022/06/07 08:18:02;;;;;;;21.02;18.83;;;;;;;22.08;56.12;101192.63;5035305;28;20044;-66
2022/06/07 08:20:34;;;;;;;23.98;19.02;;;;;;;22.09;55.55;101192.47;5036284;28;20041;-66
2022/06/07 08:23:07;;;;;;;25.45;18.95;;;;;;;22.09;55.33;101195.19;5035628;28;20034;-66
2022/06/07 08:25:35;;;;;;;22.85;19.90;;;;;;;22.11;55.54;101189.53;5035204;28;20081;-66
2022/06/07 08:28:04;;;;;;;21.95;19.42;;;;;;;22.12;55.35;101189.38;5035290;28;20117;-67
2022/06/07 08:30:32;;;;;;;21.27;18.38;;;;;;;22.19;55.65;101189.53;5037977;28;20030;-66
2022/06/07 08:37:32;;;;;;;22.33;18.85;;;;;;;22.27;55.57;101191.38;5054577;28;20056;-66
2022/06/07 08:38:35;;;;;;;26.63;21.42;;;;;;;22.48;55.09;101189.78;5034445;28;20037;-67
2022/06/07 08:41:01;;;;;;;23.83;21.33;;;;;;;22.57;54.48;101185.09;5041195;28;20051;-66
2022/06/07 08:43:31;;;;;;;24.23;21.65;;;;;;;22.59;54.19;101185.78;5037801;28;20487;-66
2022/06/07 08:45:58;;;;;;;24.58;20.35;;;;;;;22.63;54.06;101189.00;5034648;28;20087;-66
2022/06/07 08:48:32;;;;;;;22.05;19.73;;;;;;;22.58;53.73;101192.28;5033895;28;20057;-67
2022/06/07 08:51:24;;;;;;;22.67;20.23;;;;;;;22.58;53.85;101191.44;5037704;28;20160;-64
2022/06/07 08:53:59;;;;;;;24.25;20.75;;;;;;;22.63;53.69;101183.53;5034066;28;20065;-66
2022/06/07 08:56:30;;;;;;;27.80;23.13;;;;;;;22.76;53.86;101184.66;5034081;28;20068;-67
2022/06/07 08:59:00;;;;;;;24.42;21.92;;;;;;;22.95;54.29;101169.69;5034182;28;20041;-66
2022/06/07 09:01:43;;;;;;;23.30;20.90;;;;;;;23.20;53.76;101185.97;5025211;28;20049;-66
2022/06/07 09:04:24;;;;;;;22.92;20.48;;;;;;;23.38;53.71;101170.91;5030716;28;20049;-65
2022/06/07 09:06:57;;;;;;;23.08;20.65;;;;;;;23.56;53.29;101170.59;5034080;28;20045;-65
2022/06/07 09:12:26;;;;;;;20.75;18.58;;;;;;;23.76;52.30;101174.50;5038608;28;20037;-66
2022/06/07 09:15:10;;;;;;;22.92;20.63;;;;;;;23.83;52.16;101169.16;5034763;28;20060;-66
2022/06/07 09:17:40;;;;;;;20.15;18.00;;;;;;;23.95;52.35;101170.41;5033657;28;20044;-65
2022/06/07 09:20:15;;;;;;;20.40;18.40;;;;;;;24.10;52.10;101175.91;5033717;28;20044;-65
2022/06/07 09:23:03;;;;;;;22.00;19.80;;;;;;;24.25;51.75;101171.25;5033577;28;20042;-65
2022/06/07 09:25:34;;;;;;;19.70;17.35;;;;;;;24.36;51.13;101173.53;5036840;28;20065;-65
2022/06/07 09:28:04;;;;;;;19.42;17.52;;;;;;;24.39;50.73;101170.41;5034010;28;20485;-65
2022/06/07 09:30:46;;;;;;;19.83;17.73;;;;;;;24.37;50.32;101168.91;5034772;28;20044;-65
2022/06/07 09:33:30;;;;;;;22.05;19.88;;;;;;;24.36;50.29;101165.31;5031370;28;20467;-65
2022/06/07 09:36:08;;;;;;;22.05;19.60;;;;;;;24.45;50.50;101174.28;5023804;28;20046;-65
2022/06/07 09:38:56;;;;;;;21.08;18.88;;;;;;;24.59;50.53;101167.94;5033679;28;20036;-66
2022/06/07 09:41:37;;;;;;;20.08;18.23;;;;;;;24.76;50.58;101171.31;5039924;28;20046;-65
2022/06/07 09:44:31;;;;;;;17.83;16.10;;;;;;;24.88;49.86;101169.75;5033406;28;20072;-66
2022/06/07 09:47:02;;;;;;;16.92;15.15;;;;;;;24.97;49.52;101179.59;5030701;28;20056;-66
2022/06/07 09:49:45;;;;;;;16.45;14.77;;;;;;;25.02;49.29;101170.78;5032938;28;20079;-65
2022/06/07 09:52:35;;;;;;;17.30;15.50;;;;;;;25.11;49.22;101175.09;5032930;28;20141;-66
2022/06/07 09:55:19;;;;;;;17.42;15.73;;;;;;;25.21;48.84;101170.13;5033136;28;20041;-65
2022/06/07 09:58:13;;;;;;;16.55;15.05;;;;;;;25.23;48.44;101167.19;5032932;28;20047;-66
2022/06/07 10:01:10;;;;;;;16.88;15.18;;;;;;;25.22;48.15;101169.06;5032884;28;20048;-67
2022/06/07 10:03:55;;;;;;;18.20;16.25;;;;;;;25.15;47.87;101156.31;5017182;28;20045;-66
2022/06/07 10:06:31;;;;;;;;;;;;;;;25.08;47.98;101159.00;5042758;28;20097;-68
2022/06/07 10:09:19;;;;;;;19.45;17.55;;;;;;;25.09;47.86;101157.97;5023922;28;20301;-69
2022/06/07 10:12:16;;;;;;;18.27;16.50;;;;;;;25.09;47.51;101154.34;5020436;28;20471;-67
2022/06/07 10:15:02;;;;;;;18.95;16.10;;;;;;;25.18;47.88;101150.44;5032058;28;20049;-67
2022/06/07 10:17:55;;;;;;;20.17;18.15;;;;;;;25.33;48.17;101154.84;5044312;28;20474;-67
2022/06/07 10:20:46;;;;;;;16.48;14.88;;;;;;;25.51;47.92;101148.84;5017645;28;20069;-68
2022/06/07 10:23:34;;;;;;;17.77;16.08;;;;;;;25.70;47.75;101150.06;5027889;28;20038;-66
2022/06/07 10:26:04;;;;;;;15.48;13.90;;;;;;;25.85;47.18;101139.81;5030828;28;20055;-68
2022/06/07 10:28:36;;;;;;;13.38;12.15;;;;;;;25.93;46.85;101144.31;5032408;28;20044;-68
2022/06/07 10:31:08;;;;;;;14.27;12.77;;;;;;;26.04;46.32;101142.91;5038503;28;20034;-68
2022/06/07 10:33:47;;;;;;;13.45;12.23;;;;;;;26.13;46.24;101139.78;5011679;28;20071;-67
2022/06/07 10:36:33;;;;;;;12.85;11.55;;;;;;;26.24;45.60;101144.72;5020877;28;20045;-68
2022/06/07 10:39:21;;;;;;;13.38;12.07;;;;;;;26.34;45.33;101140.78;5025063;28;20044;-68
2022/06/07 10:42:03;;;;;;;15.18;13.57;;;;;;;26.44;45.16;101139.34;5016569;28;20056;-68
2022/06/07 10:44:38;;;;;;;16.05;13.60;;;;;;;26.55;45.21;101137.88;5027545;28;20048;-67
2022/06/07 10:47:23;;;;;;;;;;;;;;;26.59;45.13;101137.25;5039124;28;20067;-68
2022/06/07 10:50:03;;;;;;;13.40;12.18;;;;;;;26.67;45.12;101130.72;5040254;28;19921;-69
2022/06/07 10:52:55;;;;;;;14.35;13.05;;;;;;;26.69;44.63;101136.03;5033106;28;20415;-67
2022/06/07 10:55:37;;;;;;;13.82;12.52;;;;;;;26.75;44.45;101133.28;5040579;28;20037;-67
2022/06/07 10:58:34;;;;;;;14.20;12.77;;;;;;;26.74;44.50;101133.50;5018882;28;20042;-68
2022/06/07 11:01:01;;;;;;;14.30;12.80;;;;;;;26.79;44.56;101125.47;5032123;28;20049;-68
2022/06/07 11:03:49;;;;;;;12.45;11.05;;;;;;;26.76;44.21;101129.50;5037019;28;20486;-68
2022/06/07 11:09:37;;;;;;;10.77;9.77;;;;;;;26.83;44.29;101121.25;5032105;28;20054;-68
2022/06/07 11:12:21;;;;;;;9.60;8.52;;;;;;;26.89;44.19;101121.25;5032146;28;20033;-68
2022/06/07 11:15:15;;;;;;;11.20;9.23;;;;;;;26.96;44.21;101120.41;5053499;28;20117;-68
2022/06/07 11:17:45;;;;;;;10.32;9.10;;;;;;;27.00;43.97;101121.72;5021199;28;20117;-68
2022/06/07 11:20:34;;;;;;;10.45;8.25;;;;;;;26.91;43.32;101115.53;5031026;28;20037;-68
2022/06/07 11:23:02;;;;;;;9.07;8.20;;;;;;;26.84;43.35;101128.47;5026204;28;20120;-68
2022/06/07 11:25:43;;;;;;;8.43;7.60;;;;;;;26.73;43.29;101118.88;5025773;28;20523;-68
2022/06/07 11:28:23;;;;;;;11.32;9.32;;;;;;;26.67;43.43;101125.22;5028933;28;20035;-68
2022/06/07 11:30:54;;;;;;;10.38;9.35;;;;;;;26.69;43.28;101119.50;5028961;28;20052;-67
2022/06/07 11:33:42;;;;;;;9.98;8.98;;;;;;;26.56;42.81;101121.16;5028521;28;20038;-67
2022/06/07 11:36:12;;;;;;;8.75;7.95;;;;;;;26.49;42.75;101119.44;5025136;28;20053;-67
2022/06/07 11:38:54;;;;;;;9.45;7.80;;;;;;;26.41;42.93;101117.72;5028137;28;20045;-67
2022/06/07 11:41:40;;;;;;;8.48;6.45;;;;;;;26.38;43.12;101120.03;5030197;28;20046;-67
2022/06/07 11:44:16;;;;;;;6.53;5.63;;;;;;;26.32;43.34;101116.16;5036339;28;20554;-67
2022/06/07 11:46:51;;;;;;;5.95;4.90;;;;;;;26.35;43.22;101125.94;5032068;28;20500;-67
2022/06/07 11:49:20;;;;;;;7.57;4.55;;;;;;;26.31;43.33;101122.72;5028290;28;20049;-67
2022/06/07 11:52:22;;;;;;;6.43;5.03;;;;;;;26.25;43.53;101112.53;5025537;28;20042;-67
2022/06/07 11:54:55;;;;;;;7.32;4.50;;;;;;;26.29;43.36;101120.16;5030892;28;20059;-68
2022/06/07 11:58:03;;;;;;;7.07;4.90;;;;;;;26.34;43.21;101119.59;5025043;28;20487;-67
2022/06/07 12:00:30;;;;;;;6.13;4.32;;;;;;;26.38;43.44;101111.75;5025534;28;20049;-68
2022/06/07 12:03:03;;;;;;;4.75;3.10;;;;;;;26.30;43.11;101112.75;5028756;28;20061;-68
2022/06/07 12:05:35;;;;;;;5.72;3.33;;;;;;;26.20;42.92;101115.06;5034660;28;20057;-69
2022/06/07 12:08:28;;;;;;;4.05;3.08;;;;;;;26.06;43.11;101116.88;5027369;28;20046;-68